Time;durP1;ratioP1;P1;durP2;ratioP2;P2;SDS_P1;SDS_P2;PMS_P1;PMS_P2;Temp;Humidity;BMP_temperature;BMP_pressure;BME280_temperature;BME280_humidity;BME280_pressure;Samples;Min_cycle;Max_cycle;Signal;HPM_P1;HPM_P2
2023/08/21 00:04:06;;;;;;;;;;;;;;;16.38;90.47754;102404.9;;;;-79
2023/08/21 00:09:06;;;;;;;;;;;;;;;16.34;87.75195;102405.1;;;;-80
2023/08/21 00:14:06;;;;;;;;;;;;;;;16.31;87.80273;102408.6;;;;-79
2023/08/21 00:19:06;;;;;;;;;;;;;;;16.26;84.15527;102410;;;;-80
2023/08/21 00:20:47;;;;;;;5.2;2.1;;;;;;;;;;;;;-79
2023/08/21 00:24:05;;;;;;;;;;;;;;;16.18;82.66113;102412.1;;;;-79
2023/08/21 00:29:06;;;;;;;;;;;;;;;16.16;89.28223;102421.2;;;;-81
2023/08/21 00:34:06;;;;;;;;;;;;;;;16.18;89.19824;102416.8;;;;-79
2023/08/21 00:39:06;;;;;;;;;;;;;;;16.18;90.28223;102414.8;;;;-81
2023/08/21 00:44:06;;;;;;;;;;;;;;;16.14;89.35645;102408;;;;-81
2023/08/21 00:49:06;;;;;;;;;;;;;;;16.04;85.35547;102406.9;;;;-79
2023/08/21 00:50:50;;;;;;;6;2.2;;;;;;;;;;;;;-79
2023/08/21 00:54:06;;;;;;;;;;;;;;;15.96;87.04004;102406.5;;;;-80
2023/08/21 00:59:06;;;;;;;;;;;;;;;15.9;87.33105;102411.2;;;;-80
2023/08/21 01:04:07;;;;;;;;;;;;;;;15.84;85.76465;102413.2;;;;-80
2023/08/21 01:09:08;;;;;;;;;;;;;;;15.83;89.99805;102412;;;;-78
2023/08/21 01:14:10;;;;;;;;;;;;;;;15.75;88.81934;102418.1;;;;-78
2023/08/21 01:19:07;;;;;;;;;;;;;;;15.67;88.73633;102421.1;;;;-81
2023/08/21 01:20:52;;;;;;;5.6;2;;;;;;;;;;;;;-80
2023/08/21 01:24:05;;;;;;;;;;;;;;;15.63;93.25879;102428.6;;;;-80
2023/08/21 01:29:06;;;;;;;;;;;;;;;15.55;91.42383;102428.9;;;;-81
2023/08/21 01:34:08;;;;;;;;;;;;;;;15.52;92.35547;102425.9;;;;-78
2023/08/21 01:39:06;;;;;;;;;;;;;;;15.49;89.06934;102428.3;;;;-80
2023/08/21 01:44:05;;;;;;;;;;;;;;;15.42;85.96094;102428.2;;;;-79
2023/08/21 01:49:05;;;;;;;;;;;;;;;15.42;85.51563;102430.3;;;;-79
2023/08/21 01:50:55;;;;;;;4.7;1.8;;;;;;;;;;;;;-80
2023/08/21 01:54:07;;;;;;;;;;;;;;;15.41;84.43066;102427.4;;;;-79
2023/08/21 01:59:06;;;;;;;;;;;;;;;15.34;86.38184;102428.3;;;;-79
2023/08/21 02:04:06;;;;;;;;;;;;;;;15.28;85.93652;102434.9;;;;-80
2023/08/21 02:09:06;;;;;;;;;;;;;;;15.3;88.73926;102432.9;;;;-79
2023/08/21 02:14:06;;;;;;;;;;;;;;;15.24;83.59277;102432.1;;;;-79
2023/08/21 02:19:06;;;;;;;;;;;;;;;15.16;87.45313;102426.2;;;;-79
2023/08/21 02:20:57;;;;;;;6.5;1.8;;;;;;;;;;;;;-79
2023/08/21 02:24:05;;;;;;;;;;;;;;;15.1;87.05078;102430.1;;;;-78
2023/08/21 02:29:06;;;;;;;;;;;;;;;15.07;86.94238;102431.3;;;;-80
2023/08/21 02:34:06;;;;;;;;;;;;;;;15.02;86.44238;102431.7;;;;-79
2023/08/21 02:39:06;;;;;;;;;;;;;;;15.04;87.57324;102431;;;;-79
2023/08/21 02:44:05;;;;;;;;;;;;;;;15.04;89.99316;102429.6;;;;-78
2023/08/21 02:49:08;;;;;;;;;;;;;;;15.01;87.9248;102431.7;;;;-80
2023/08/21 02:51:02;;;;;;;4.4;1.6;;;;;;;;;;;;;-79
2023/08/21 02:54:06;;;;;;;;;;;;;;;14.95;87.0293;102423.1;;;;-78
2023/08/21 02:59:06;;;;;;;;;;;;;;;14.89;87.73438;102417.3;;;;-79
2023/08/21 03:04:05;;;;;;;;;;;;;;;14.88;92.66797;102419.8;;;;-80
2023/08/21 03:09:05;;;;;;;;;;;;;;;14.84;92.6582;102418.2;;;;-79
2023/08/21 03:14:06;;;;;;;;;;;;;;;14.8;93.24121;102419.1;;;;-80
2023/08/21 03:19:05;;;;;;;;;;;;;;;14.76;91.06055;102413.3;;;;-80
2023/08/21 03:21:02;;;;;;;5.7;1.8;;;;;;;;;;;;;-79
2023/08/21 03:24:05;;;;;;;;;;;;;;;14.73;88.77148;102412.5;;;;-79
2023/08/21 03:29:06;;;;;;;;;;;;;;;14.75;91.62598;102411.6;;;;-79
2023/08/21 03:34:05;;;;;;;;;;;;;;;14.81;99.41406;102410;;;;-80
2023/08/21 03:39:06;;;;;;;;;;;;;;;14.92;100;102412.7;;;;-80
2023/08/21 03:44:06;;;;;;;;;;;;;;;14.94;100;102416.9;;;;-79
2023/08/21 03:49:06;;;;;;;;;;;;;;;14.95;100;102415.9;;;;-80
2023/08/21 03:51:04;;;;;;;7.7;2.1;;;;;;;;;;;;;-79
2023/08/21 03:54:05;;;;;;;;;;;;;;;14.88;97.75195;102416.2;;;;-79
2023/08/21 03:59:08;;;;;;;;;;;;;;;14.81;95.1123;102410.2;;;;-79
2023/08/21 04:04:06;;;;;;;;;;;;;;;14.73;93.49219;102412.4;;;;-79
2023/08/21 04:09:06;;;;;;;;;;;;;;;14.66;95.63672;102411.5;;;;-79
2023/08/21 04:14:06;;;;;;;;;;;;;;;14.8;100;102414.4;;;;-81
2023/08/21 04:19:05;;;;;;;;;;;;;;;14.81;100;102411.3;;;;-79
2023/08/21 04:21:07;;;;;;;9.1;2.7;;;;;;;;;;;;;-78
2023/08/21 04:24:06;;;;;;;;;;;;;;;14.84;100;102410.2;;;;-77
2023/08/21 04:29:06;;;;;;;;;;;;;;;14.86;100;102417.8;;;;-80
2023/08/21 04:34:05;;;;;;;;;;;;;;;14.86;99.42676;102419.9;;;;-79
2023/08/21 04:39:06;;;;;;;;;;;;;;;14.92;100;102418.2;;;;-80
2023/08/21 04:44:10;;;;;;;;;;;;;;;14.94;100;102416.3;;;;-80
2023/08/21 04:49:06;;;;;;;;;;;;;;;14.96;100;102416.1;;;;-79
2023/08/21 04:51:10;;;;;;;10.1;3.7;;;;;;;;;;;;;-79
2023/08/21 04:54:06;;;;;;;;;;;;;;;15;100;102420;;;;-79
2023/08/21 04:59:06;;;;;;;;;;;;;;;15.03;100;102428.8;;;;-79
2023/08/21 05:04:06;;;;;;;;;;;;;;;15.07;100;102429.4;;;;-80
2023/08/21 05:09:05;;;;;;;;;;;;;;;15.15;100;102432.2;;;;-80
2023/08/21 05:14:05;;;;;;;;;;;;;;;15.2;98.84375;102431.9;;;;-79
2023/08/21 05:19:05;;;;;;;;;;;;;;;15.23;99.03223;102433.2;;;;-80
2023/08/21 05:21:11;;;;;;;7.3;2.9;;;;;;;;;;;;;-78
2023/08/21 05:24:06;;;;;;;;;;;;;;;15.36;100;102431;;;;-81
2023/08/21 05:29:05;;;;;;;;;;;;;;;15.47;99.99512;102437.6;;;;-81
2023/08/21 05:34:06;;;;;;;;;;;;;;;15.55;99.45703;102440.6;;;;-79
2023/08/21 05:39:06;;;;;;;;;;;;;;;15.69;99.05371;102445.2;;;;-79
2023/08/21 05:44:06;;;;;;;;;;;;;;;15.83;98.69629;102444.1;;;;-80
2023/08/21 05:49:05;;;;;;;;;;;;;;;16.46;96.42578;102445.4;;;;-80
2023/08/21 05:51:14;;;;;;;8.7;3.1;;;;;;;;;;;;;-80
2023/08/21 05:54:06;;;;;;;;;;;;;;;17.57;89.27441;102440.1;;;;-79
2023/08/21 05:59:05;;;;;;;;;;;;;;;18.34;84.40234;102439.1;;;;-80
2023/08/21 06:04:06;;;;;;;;;;;;;;;18.82;81.67871;102441.1;;;;-80
2023/08/21 06:09:07;;;;;;;;;;;;;;;19.12;80.0752;102437.2;;;;-80
2023/08/21 06:14:06;;;;;;;;;;;;;;;19.44;78.3125;102445.4;;;;-80
2023/08/21 06:19:05;;;;;;;;;;;;;;;19.9;76.73145;102449.7;;;;-78
2023/08/21 06:21:17;;;;;;;7.7;2.5;;;;;;;;;;;;;-80
2023/08/21 06:24:06;;;;;;;;;;;;;;;20.07;75.88867;102446.2;;;;-80
2023/08/21 06:29:05;;;;;;;;;;;;;;;20.35;74.32617;102448.2;;;;-81
2023/08/21 06:34:06;;;;;;;;;;;;;;;20.46;73.57324;102449.5;;;;-81
2023/08/21 06:39:09;;;;;;;;;;;;;;;20.72;73.41211;102449.3;;;;-79
2023/08/21 06:44:06;;;;;;;;;;;;;;;20.91;72.45605;102449.5;;;;-79
2023/08/21 06:49:06;;;;;;;;;;;;;;;21.32;71.2832;102451.1;;;;-80
2023/08/21 06:51:21;;;;;;;12.1;3;;;;;;;;;;;;;-79
2023/08/21 06:54:06;;;;;;;;;;;;;;;21.55;70.02246;102447.5;;;;-80
2023/08/21 06:59:06;;;;;;;;;;;;;;;21.79;70.24316;102452.6;;;;-79
2023/08/21 07:04:11;;;;;;;;;;;;;;;21.99;70.41113;102454.7;;;;-80
2023/08/21 07:09:06;;;;;;;;;;;;;;;21.96;71.60059;102448.6;;;;-79
2023/08/21 07:14:06;;;;;;;;;;;;;;;21.84;72.13965;102452.8;;;;-80
2023/08/21 07:19:08;;;;;;;;;;;;;;;21.95;71.78125;102454.8;;;;-78
2023/08/21 07:21:25;;;;;;;9.3;2.9;;;;;;;;;;;;;-79
2023/08/21 07:24:06;;;;;;;;;;;;;;;22.1;71.36035;102451.9;;;;-80
2023/08/21 07:29:05;;;;;;;;;;;;;;;22.23;72.32813;102455.2;;;;-80
2023/08/21 07:34:05;;;;;;;;;;;;;;;22.36;72.82813;102456.3;;;;-79
2023/08/21 07:39:08;;;;;;;;;;;;;;;22.34;72.42578;102459.4;;;;-81
2023/08/21 07:44:05;;;;;;;;;;;;;;;22.21;72.99707;102456.1;;;;-80
2023/08/21 07:49:06;;;;;;;;;;;;;;;22.07;73.75879;102460.7;;;;-80
2023/08/21 07:51:29;;;;;;;10.8;2.9;;;;;;;;;;;;;-80
2023/08/21 07:54:08;;;;;;;;;;;;;;;22.06;74.31445;102468;;;;-80
2023/08/21 07:59:05;;;;;;;;;;;;;;;22.1;74.24219;102469.1;;;;-79
2023/08/21 08:04:07;;;;;;;;;;;;;;;22.37;73.83105;102466.7;;;;-79
2023/08/21 08:09:07;;;;;;;;;;;;;;;22.45;72.78516;102475.7;;;;-79
2023/08/21 08:14:07;;;;;;;;;;;;;;;22.52;72.4873;102480.7;;;;-80
2023/08/21 08:19:06;;;;;;;;;;;;;;;22.81;71.50977;102478.2;;;;-79
2023/08/21 08:21:33;;;;;;;13.2;2.7;;;;;;;;;;;;;-79
2023/08/21 08:24:05;;;;;;;;;;;;;;;22.95;71.14355;102473.2;;;;-79
2023/08/21 08:29:06;;;;;;;;;;;;;;;23.09;71.09668;102470.3;;;;-81
2023/08/21 08:34:05;;;;;;;;;;;;;;;23.31;70.35352;102468.1;;;;-80
2023/08/21 08:39:06;;;;;;;;;;;;;;;23.55;71.10059;102473;;;;-79
2023/08/21 08:44:07;;;;;;;;;;;;;;;23.7;68.71094;102467.9;;;;-79
2023/08/21 08:49:06;;;;;;;;;;;;;;;23.78;67.65918;102470.9;;;;-80
2023/08/21 08:51:39;;;;;;;9.4;2.5;;;;;;;;;;;;;-80
2023/08/21 08:54:06;;;;;;;;;;;;;;;24.1;67.44336;102469.2;;;;-80
2023/08/21 08:59:05;;;;;;;;;;;;;;;24.44;65.35156;102467.5;;;;-79
2023/08/21 09:04:07;;;;;;;;;;;;;;;24.66;63.55762;102476;;;;-79
2023/08/21 09:09:12;;;;;;;;;;;;;;;24.74;64.10742;102473;;;;-79
2023/08/21 09:14:06;;;;;;;;;;;;;;;24.76;63.1123;102475.2;;;;-80
2023/08/21 09:19:06;;;;;;;;;;;;;;;24.84;62.5957;102473.3;;;;-81
2023/08/21 09:21:42;;;;;;;9.5;2.2;;;;;;;;;;;;;-80
2023/08/21 09:24:07;;;;;;;;;;;;;;;24.92;61.03027;102466;;;;-79
2023/08/21 09:29:08;;;;;;;;;;;;;;;25.11;62.20605;102455;;;;-79
2023/08/21 09:34:06;;;;;;;;;;;;;;;25.5;58.96777;102452.5;;;;-81
2023/08/21 09:39:07;;;;;;;;;;;;;;;25.6;59.73047;102446.9;;;;-79
2023/08/21 09:44:07;;;;;;;;;;;;;;;25.73;58.96289;102454.1;;;;-80
2023/08/21 09:49:06;;;;;;;;;;;;;;;25.79;56.71094;102446.8;;;;-80
2023/08/21 09:51:49;;;;;;;6.4;1.5;;;;;;;;;;;;;-80
2023/08/21 09:54:07;;;;;;;;;;;;;;;26.15;56.84863;102439.8;;;;-80
2023/08/21 09:59:06;;;;;;;;;;;;;;;26.4;56.3252;102439.2;;;;-81
2023/08/21 10:04:06;;;;;;;;;;;;;;;26.39;54.74023;102439.6;;;;-79
2023/08/21 10:09:07;;;;;;;;;;;;;;;26;53.51563;102444.1;;;;-79
2023/08/21 10:14:08;;;;;;;;;;;;;;;26.09;52.92578;102440.1;;;;-80
2023/08/21 10:19:06;;;;;;;;;;;;;;;26.63;51.88965;102447.9;;;;-80
2023/08/21 10:21:51;;;;;;;4.8;1.3;;;;;;;;;;;;;-80
2023/08/21 10:24:05;;;;;;;;;;;;;;;26.75;50.52637;102442;;;;-80
2023/08/21 10:29:06;;;;;;;;;;;;;;;26.71;49.45605;102453.2;;;;-79
2023/08/21 10:34:07;;;;;;;;;;;;;;;27.36;50.3623;102449.2;;;;-79
2023/08/21 10:39:16;;;;;;;;;;;;;;;27.03;50.53418;102449.8;;;;-79
2023/08/21 10:44:06;;;;;;;;;;;;;;;27.19;48.38477;102446.5;;;;-80
2023/08/21 10:49:06;;;;;;;;;;;;;;;27.44;47.23828;102447.4;;;;-80
2023/08/21 10:51:55;;;;;;;4.2;1.2;;;;;;;;;;;;;-80
2023/08/21 10:54:14;;;;;;;;;;;;;;;27.68;45.6709;102445.6;;;;-80
2023/08/21 10:59:06;;;;;;;;;;;;;;;27.64;46.49219;102437.3;;;;-79
2023/08/21 11:04:06;;;;;;;;;;;;;;;27.61;45.00098;102439.4;;;;-80
2023/08/21 11:09:07;;;;;;;;;;;;;;;28.06;44.06934;102436.8;;;;-80
2023/08/21 11:14:06;;;;;;;;;;;;;;;28.56;42.96387;102437.6;;;;-81
2023/08/21 11:19:07;;;;;;;;;;;;;;;28.43;42.3125;102438.2;;;;-80
2023/08/21 11:22:03;;;;;;;3.9;0.9;;;;;;;;;;;;;-81
2023/08/21 11:24:05;;;;;;;;;;;;;;;28;43.43457;102442.4;;;;-79
2023/08/21 11:29:06;;;;;;;;;;;;;;;28.36;43.88965;102438.6;;;;-80
2023/08/21 11:34:06;;;;;;;;;;;;;;;28.27;43.81055;102438;;;;-80
2023/08/21 11:39:08;;;;;;;;;;;;;;;28.32;42.55762;102441.2;;;;-78
2023/08/21 11:44:09;;;;;;;;;;;;;;;28.3;40.98242;102444.3;;;;-79
2023/08/21 11:49:06;;;;;;;;;;;;;;;28.8;40.26953;102440.6;;;;-79
2023/08/21 11:52:07;;;;;;;4.1;1.1;;;;;;;;;;;;;-79
2023/08/21 11:54:08;;;;;;;;;;;;;;;28.5;38.9707;102447.6;;;;-79
2023/08/21 11:59:06;;;;;;;;;;;;;;;28.46;38.50098;102453.7;;;;-80
2023/08/21 12:04:16;;;;;;;;;;;;;;;28.59;39.79492;102450.7;;;;-79
2023/08/21 12:09:06;;;;;;;;;;;;;;;28.72;39.51563;102450.4;;;;-80
2023/08/21 12:14:10;;;;;;;;;;;;;;;28.45;40.2959;102444.9;;;;-80
2023/08/21 12:19:09;;;;;;;;;;;;;;;28.55;40.57324;102434.1;;;;-80
2023/08/21 12:22:12;;;;;;;4.1;1.2;;;;;;;;;;;;;-81
2023/08/21 12:24:06;;;;;;;;;;;;;;;28.56;40.69141;102435.2;;;;-80
2023/08/21 12:29:06;;;;;;;;;;;;;;;28.75;42.45703;102434.6;;;;-80
2023/08/21 12:34:06;;;;;;;;;;;;;;;29.15;41.86523;102433.5;;;;-78
2023/08/21 12:39:06;;;;;;;;;;;;;;;28.74;42.42285;102435;;;;-80
2023/08/21 12:44:08;;;;;;;;;;;;;;;28.46;41.99902;102431.6;;;;-80
2023/08/21 12:49:06;;;;;;;;;;;;;;;28.79;41.88965;102428.8;;;;-79
2023/08/21 12:52:19;;;;;;;6.8;1.5;;;;;;;;;;;;;-79
2023/08/21 12:54:08;;;;;;;;;;;;;;;28.57;42.97656;102431.2;;;;-80
2023/08/21 12:59:06;;;;;;;;;;;;;;;28.73;41.13867;102434.4;;;;-79
2023/08/21 13:04:05;;;;;;;;;;;;;;;28.68;43.0332;102436.8;;;;-80
2023/08/21 13:09:07;;;;;;;;;;;;;;;28.63;42.27148;102415.8;;;;-81
2023/08/21 13:14:05;;;;;;;;;;;;;;;28.69;43;102412;;;;-79
2023/08/21 13:19:05;;;;;;;;;;;;;;;29;42.1543;102417.4;;;;-80
2023/08/21 13:22:23;;;;;;;4.9;1.1;;;;;;;;;;;;;-79
2023/08/21 13:24:05;;;;;;;;;;;;;;;28.99;43.0752;102419.8;;;;-80
2023/08/21 13:29:07;;;;;;;;;;;;;;;28.89;42.08594;102417;;;;-80
2023/08/21 13:34:06;;;;;;;;;;;;;;;28.72;44.05176;102420.2;;;;-80
2023/08/21 13:39:10;;;;;;;;;;;;;;;28.83;42.88477;102421;;;;-80
2023/08/21 13:44:07;;;;;;;;;;;;;;;28.39;44.06641;102423.8;;;;-80
2023/08/21 13:49:06;;;;;;;;;;;;;;;28.6;42.875;102419.9;;;;-80
2023/08/21 13:52:27;;;;;;;5.7;1.1;;;;;;;;;;;;;-80
2023/08/21 13:54:05;;;;;;;;;;;;;;;28.86;42.49121;102415.8;;;;-80
2023/08/21 13:59:08;;;;;;;;;;;;;;;28.65;39.63867;102417.9;;;;-80
2023/08/21 14:04:06;;;;;;;;;;;;;;;28.38;43.82129;102412.9;;;;-79
2023/08/21 14:09:05;;;;;;;;;;;;;;;28.33;43.2334;102405.5;;;;-78
2023/08/21 14:14:05;;;;;;;;;;;;;;;28.88;40.50977;102395.2;;;;-78
2023/08/21 14:19:06;;;;;;;;;;;;;;;29.07;44.64551;102401.6;;;;-79
2023/08/21 14:22:34;;;;;;;3.7;1.1;;;;;;;;;;;;;-80
2023/08/21 14:24:07;;;;;;;;;;;;;;;29.05;42.14746;102399.4;;;;-79
2023/08/21 14:29:06;;;;;;;;;;;;;;;29.16;42.90527;102396.6;;;;-79
2023/08/21 14:34:06;;;;;;;;;;;;;;;28.75;44.36914;102390.8;;;;-80
2023/08/21 14:39:06;;;;;;;;;;;;;;;28.95;48.93262;102375.7;;;;-81
2023/08/21 14:44:05;;;;;;;;;;;;;;;28.63;39.51953;102383.5;;;;-79
2023/08/21 14:49:05;;;;;;;;;;;;;;;28.47;43.60742;102377.1;;;;-80
2023/08/21 14:52:39;;;;;;;5.4;1.5;;;;;;;;;;;;;-80
2023/08/21 14:54:06;;;;;;;;;;;;;;;28.49;43.54102;102371;;;;-79
2023/08/21 14:59:05;;;;;;;;;;;;;;;28.27;40.83984;102358;;;;-80
2023/08/21 15:04:07;;;;;;;;;;;;;;;28.14;43.18164;102357.4;;;;-79
2023/08/21 15:09:06;;;;;;;;;;;;;;;28.08;44.47852;102365.9;;;;-79
2023/08/21 15:14:13;;;;;;;;;;;;;;;27.97;41.11621;102365.8;;;;-78
2023/08/21 15:19:07;;;;;;;;;;;;;;;28.12;40.5;102359.3;;;;-79
2023/08/21 15:22:47;;;;;;;3.8;0.9;;;;;;;;;;;;;-79
2023/08/21 15:24:06;;;;;;;;;;;;;;;28.06;40.2041;102348;;;;-81
2023/08/21 15:29:06;;;;;;;;;;;;;;;27.96;39.77539;102345.1;;;;-80
2023/08/21 15:34:05;;;;;;;;;;;;;;;27.97;40.42871;102349.7;;;;-78
2023/08/21 15:39:06;;;;;;;;;;;;;;;27.99;40.47754;102347.4;;;;-79
2023/08/21 15:44:06;;;;;;;;;;;;;;;27.62;39.20996;102338.5;;;;-77
2023/08/21 15:49:05;;;;;;;;;;;;;;;27.51;41.42188;102335.6;;;;-79
2023/08/21 15:52:50;;;;;;;3.9;1.4;;;;;;;;;;;;;-79
2023/08/21 15:54:06;;;;;;;;;;;;;;;27.39;39.33105;102334.9;;;;-78
2023/08/21 15:59:05;;;;;;;;;;;;;;;27.09;41.91992;102319.4;;;;-80
2023/08/21 16:04:06;;;;;;;;;;;;;;;27.41;44.13379;102336.1;;;;-81
2023/08/21 16:09:08;;;;;;;;;;;;;;;27.66;43.2627;102323.9;;;;-79
2023/08/21 16:14:07;;;;;;;;;;;;;;;27.31;44.46094;102330.4;;;;-77
2023/08/21 16:19:07;;;;;;;;;;;;;;;27.29;45.16797;102330.3;;;;-80
2023/08/21 16:22:58;;;;;;;4.5;1.1;;;;;;;;;;;;;-80
2023/08/21 16:24:06;;;;;;;;;;;;;;;27.32;45.10059;102323.1;;;;-79
2023/08/21 16:29:06;;;;;;;;;;;;;;;27.19;45.77148;102318.5;;;;-79
2023/08/21 16:34:06;;;;;;;;;;;;;;;27.14;45.47754;102309.5;;;;-81
2023/08/21 16:39:06;;;;;;;;;;;;;;;27.04;46.17578;102308.3;;;;-81
2023/08/21 16:44:07;;;;;;;;;;;;;;;26.91;46.98633;102298.1;;;;-80
2023/08/21 16:49:06;;;;;;;;;;;;;;;26.56;47.2959;102303.9;;;;-80
2023/08/21 16:53:01;;;;;;;4.6;1.2;;;;;;;;;;;;;-79
2023/08/21 16:54:05;;;;;;;;;;;;;;;26.59;47.30078;102302.4;;;;-80
2023/08/21 16:59:08;;;;;;;;;;;;;;;26.47;47.36816;102309.6;;;;-81
2023/08/21 17:04:05;;;;;;;;;;;;;;;26.26;48.0293;102304.7;;;;-80
2023/08/21 17:09:06;;;;;;;;;;;;;;;26.14;48.53711;102299.8;;;;-80
2023/08/21 17:14:05;;;;;;;;;;;;;;;25.96;48.58789;102294.2;;;;-80
2023/08/21 17:19:07;;;;;;;;;;;;;;;25.85;48.56445;102286;;;;-81
2023/08/21 17:23:07;;;;;;;3.9;1.4;;;;;;;;;;;;;-80
2023/08/21 17:24:06;;;;;;;;;;;;;;;25.48;48.91699;102293.9;;;;-81
2023/08/21 17:29:06;;;;;;;;;;;;;;;25.16;50.60156;102291.9;;;;-78
2023/08/21 17:34:06;;;;;;;;;;;;;;;25.12;51.77344;102282.9;;;;-82
2023/08/21 17:39:06;;;;;;;;;;;;;;;24.99;50.7793;102270.9;;;;-81
2023/08/21 17:44:06;;;;;;;;;;;;;;;24.96;51.22559;102270.5;;;;-81
2023/08/21 17:49:06;;;;;;;;;;;;;;;24.78;50.88184;102272.1;;;;-79
2023/08/21 17:53:11;;;;;;;3;1.1;;;;;;;;;;;;;-80
2023/08/21 17:54:05;;;;;;;;;;;;;;;24.57;51.73438;102265.5;;;;-80
2023/08/21 17:59:06;;;;;;;;;;;;;;;24.3;52.60156;102275.2;;;;-80
2023/08/21 18:04:09;;;;;;;;;;;;;;;24.07;53.3916;102282.3;;;;-79
2023/08/21 18:09:07;;;;;;;;;;;;;;;23.87;54.09082;102284.2;;;;-81
2023/08/21 18:14:05;;;;;;;;;;;;;;;23.58;54.62012;102276.8;;;;-80
2023/08/21 18:19:06;;;;;;;;;;;;;;;23.3;55.34277;102275.4;;;;-82
2023/08/21 18:23:17;;;;;;;3.4;1.2;;;;;;;;;;;;;-79
2023/08/21 18:24:05;;;;;;;;;;;;;;;23.1;55.63867;102274.9;;;;-79
2023/08/21 18:29:07;;;;;;;;;;;;;;;22.86;56.12598;102286;;;;-79
2023/08/21 18:34:05;;;;;;;;;;;;;;;22.77;56.38867;102283.7;;;;-79
2023/08/21 18:39:05;;;;;;;;;;;;;;;22.52;56.99805;102282.3;;;;-82
2023/08/21 18:44:06;;;;;;;;;;;;;;;22.31;57.87598;102282.9;;;;-79
2023/08/21 18:49:06;;;;;;;;;;;;;;;22.07;58.0498;102276.8;;;;-82
2023/08/21 18:53:20;;;;;;;3.8;1.6;;;;;;;;;;;;;-80
2023/08/21 18:54:06;;;;;;;;;;;;;;;21.85;59.9873;102277.4;;;;-79
2023/08/21 18:59:05;;;;;;;;;;;;;;;21.63;61.13379;102271.6;;;;-81
2023/08/21 19:04:05;;;;;;;;;;;;;;;21.47;61.44238;102283;;;;-81
2023/08/21 19:09:06;;;;;;;;;;;;;;;21.26;60.95703;102283.9;;;;-79
2023/08/21 19:14:05;;;;;;;;;;;;;;;21.08;62.15332;102290.3;;;;-81
2023/08/21 19:19:05;;;;;;;;;;;;;;;20.89;63.55957;102297.5;;;;-81
2023/08/21 19:23:24;;;;;;;6.9;2.7;;;;;;;;;;;;;-78
2023/08/21 19:24:05;;;;;;;;;;;;;;;20.68;64.27148;102293.2;;;;-82
2023/08/21 19:29:05;;;;;;;;;;;;;;;20.53;64.46387;102302;;;;-80
2023/08/21 19:34:05;;;;;;;;;;;;;;;20.41;65.0957;102310.3;;;;-80
2023/08/21 19:39:05;;;;;;;;;;;;;;;20.27;65.20117;102307;;;;-80
2023/08/21 19:44:06;;;;;;;;;;;;;;;20.16;66.30859;102301.9;;;;-79
2023/08/21 19:49:06;;;;;;;;;;;;;;;20.02;67.16309;102299;;;;-80
2023/08/21 19:53:28;;;;;;;4.5;1.6;;;;;;;;;;;;;-80
2023/08/21 19:54:05;;;;;;;;;;;;;;;19.94;67.85449;102301.5;;;;-80
2023/08/21 19:59:06;;;;;;;;;;;;;;;19.86;68.75977;102296.9;;;;-80
2023/08/21 20:04:05;;;;;;;;;;;;;;;19.8;68.09375;102282.7;;;;-79
2023/08/21 20:09:06;;;;;;;;;;;;;;;19.76;67.75879;102279.4;;;;-79
2023/08/21 20:14:06;;;;;;;;;;;;;;;19.67;69.09473;102295.3;;;;-79
2023/08/21 20:19:07;;;;;;;;;;;;;;;19.57;69.58789;102300.4;;;;-80
2023/08/21 20:23:36;;;;;;;4.5;2.1;;;;;;;;;;;;;-79
2023/08/21 20:24:06;;;;;;;;;;;;;;;19.46;70.6582;102302.9;;;;-79
2023/08/21 20:29:05;;;;;;;;;;;;;;;19.34;71.5791;102290.6;;;;-80
2023/08/21 20:34:05;;;;;;;;;;;;;;;19.2;73.59277;102292.1;;;;-81
2023/08/21 20:39:05;;;;;;;;;;;;;;;19.05;72.18945;102288.4;;;;-79
2023/08/21 20:44:05;;;;;;;;;;;;;;;18.95;70.88379;102289;;;;-79
2023/08/21 20:49:06;;;;;;;;;;;;;;;18.86;69.50098;102295.8;;;;-78
2023/08/21 20:53:36;;;;;;;5.5;1.9;;;;;;;;;;;;;-80
2023/08/21 20:54:07;;;;;;;;;;;;;;;18.77;70.09766;102302.4;;;;-79
2023/08/21 20:59:06;;;;;;;;;;;;;;;18.71;72.09961;102305.9;;;;-81
2023/08/21 21:04:06;;;;;;;;;;;;;;;18.68;71.5752;102290.5;;;;-80
2023/08/21 21:09:08;;;;;;;;;;;;;;;18.65;72.21484;102286.1;;;;-79
2023/08/21 21:14:05;;;;;;;;;;;;;;;18.62;72.82031;102293;;;;-81
2023/08/21 21:19:05;;;;;;;;;;;;;;;18.57;71.34277;102295;;;;-81
2023/08/21 21:23:38;;;;;;;6.3;2.3;;;;;;;;;;;;;-79
2023/08/21 21:24:05;;;;;;;;;;;;;;;18.51;71.04004;102290;;;;-80
2023/08/21 21:29:06;;;;;;;;;;;;;;;18.43;75.03418;102282.1;;;;-80
2023/08/21 21:34:06;;;;;;;;;;;;;;;18.36;73.15918;102297.9;;;;-80
2023/08/21 21:39:06;;;;;;;;;;;;;;;18.3;73.13965;102287.6;;;;-80
2023/08/21 21:44:06;;;;;;;;;;;;;;;18.19;75.16113;102272.6;;;;-81
2023/08/21 21:49:05;;;;;;;;;;;;;;;18.19;76.29199;102276;;;;-79
2023/08/21 21:53:41;;;;;;;11;4.6;;;;;;;;;;;;;-79
2023/08/21 21:54:05;;;;;;;;;;;;;;;18.16;72.99316;102279.1;;;;-80
2023/08/21 21:59:06;;;;;;;;;;;;;;;18.11;76.60352;102278.1;;;;-80
2023/08/21 22:04:05;;;;;;;;;;;;;;;18.09;77.77051;102281.5;;;;-79
2023/08/21 22:09:06;;;;;;;;;;;;;;;18.04;80.375;102277.9;;;;-79
2023/08/21 22:14:05;;;;;;;;;;;;;;;18.01;78.37695;102268.4;;;;-79
2023/08/21 22:19:06;;;;;;;;;;;;;;;17.93;80.36816;102269.5;;;;-80
2023/08/21 22:23:44;;;;;;;8.1;4;;;;;;;;;;;;;-81
2023/08/21 22:24:06;;;;;;;;;;;;;;;17.88;81.58398;102272.8;;;;-81
2023/08/21 22:29:05;;;;;;;;;;;;;;;17.79;84.23145;102272.7;;;;-79
2023/08/21 22:34:06;;;;;;;;;;;;;;;17.72;83.81543;102275.8;;;;-79
2023/08/21 22:39:06;;;;;;;;;;;;;;;17.67;85.48926;102271.7;;;;-80
2023/08/21 22:44:07;;;;;;;;;;;;;;;17.72;82.86914;102262.8;;;;-79
2023/08/21 22:49:05;;;;;;;;;;;;;;;17.79;82.77051;102262.8;;;;-79
2023/08/21 22:53:47;;;;;;;10.2;3.7;;;;;;;;;;;;;-79
2023/08/21 22:54:06;;;;;;;;;;;;;;;17.81;82.2002;102265.2;;;;-79
2023/08/21 22:59:05;;;;;;;;;;;;;;;17.77;84.63477;102255.5;;;;-79
2023/08/21 23:04:05;;;;;;;;;;;;;;;17.67;88.97949;102227.5;;;;-78
2023/08/21 23:09:06;;;;;;;;;;;;;;;17.63;88.2998;102216.5;;;;-79
2023/08/21 23:14:08;;;;;;;;;;;;;;;17.65;83.87988;102190.5;;;;-81
2023/08/21 23:19:05;;;;;;;;;;;;;;;17.74;91.35938;102150;;;;-80
2023/08/21 23:23:50;;;;;;;9;4;;;;;;;;;;;;;-79
2023/08/21 23:24:05;;;;;;;;;;;;;;;17.72;92.12891;102177.2;;;;-79
2023/08/21 23:29:06;;;;;;;;;;;;;;;17.68;91.34766;102196.4;;;;-79
2023/08/21 23:34:05;;;;;;;;;;;;;;;17.68;88.8252;102185.5;;;;-79
2023/08/21 23:39:07;;;;;;;;;;;;;;;17.59;89.64551;102200.1;;;;-80
2023/08/21 23:44:10;;;;;;;;;;;;;;;17.58;87.78418;102195.8;;;;-79
2023/08/21 23:49:05;;;;;;;;;;;;;;;17.52;88.56934;102199.8;;;;-80
2023/08/21 23:53:53;;;;;;;9.6;3.8;;;;;;;;;;;;;-81
2023/08/21 23:54:08;;;;;;;;;;;;;;;17.46;87.98535;102195.9;;;;-79
2023/08/21 23:59:06;;;;;;;;;;;;;;;17.48;87.84277;102197.6;;;;-80
